createdAt,value
2023-01-12T00:03:03.084Z,99499.16
2023-01-12T00:08:06.398Z,99504.03
2023-01-12T00:13:09.822Z,99504.55
2023-01-12T00:18:13.327Z,99505.54
2023-01-12T00:23:16.737Z,99497.84
2023-01-12T00:28:20.395Z,99498.65
2023-01-12T00:33:23.875Z,99498.36
2023-01-12T00:38:28.427Z,99497.13
2023-01-12T00:43:50.564Z,99500.77
2023-01-12T00:48:54.508Z,99505.92
2023-01-12T00:53:57.905Z,99510.86
2023-01-12T00:59:01.548Z,99519.82
2023-01-12T01:04:05.547Z,99526.16
2023-01-12T01:09:09.369Z,99520.27
2023-01-12T01:14:13.095Z,99511.75
2023-01-12T01:19:17.321Z,99513.91
2023-01-12T01:24:20.636Z,99517.70
2023-01-12T01:29:24.554Z,99526.05
2023-01-12T01:34:28.176Z,99533.29
2023-01-12T01:39:31.609Z,99535.11
2023-01-12T01:44:43.808Z,99532.62
2023-01-12T01:49:51.325Z,99531.92
2023-01-12T01:54:57.290Z,99527.89
2023-01-12T02:00:04.109Z,99534.03
2023-01-12T02:05:08.111Z,99535.27
2023-01-12T02:10:11.631Z,99536.42
2023-01-12T02:15:34.327Z,99547.70
2023-01-12T02:21:05.249Z,99547.12
2023-01-12T02:26:11.734Z,99545.73
2023-01-12T02:32:03.080Z,99546.66
2023-01-12T02:37:15.407Z,99545.17
2023-01-12T02:42:40.625Z,99538.40
2023-01-12T02:47:54.280Z,99542.84
2023-01-12T02:53:06.592Z,99552.75
2023-01-12T02:58:13.608Z,99568.39
2023-01-12T03:03:18.917Z,99576.41
2023-01-12T03:08:27.904Z,99573.06
2023-01-12T03:13:35.304Z,99578.27
2023-01-12T03:18:53.967Z,99577.13
2023-01-12T03:24:11.527Z,99574.73
2023-01-12T03:29:45.647Z,99572.14
2023-01-12T03:34:49.581Z,99569.59
2023-01-12T03:40:02.813Z,99574.72
2023-01-12T03:45:36.552Z,99564.88
2023-01-12T03:50:51.324Z,99562.61
2023-01-12T03:55:56.572Z,99561.80
2023-01-12T04:01:00.152Z,99561.48
2023-01-12T04:06:04.022Z,99554.00
2023-01-12T04:11:27.817Z,99553.15
2023-01-12T04:16:31.125Z,99554.10
2023-01-12T04:21:53.584Z,99563.08
2023-01-12T04:26:56.991Z,99567.10
2023-01-12T04:32:00.688Z,99570.90
2023-01-12T04:37:04.332Z,99568.35
2023-01-12T04:42:27.820Z,99572.00
2023-01-12T04:47:33.456Z,99567.62
2023-01-12T04:52:38.014Z,99565.71
2023-01-12T04:57:41.331Z,99572.30
2023-01-12T05:02:44.747Z,99578.79
2023-01-12T05:08:06.791Z,99579.50
2023-01-12T05:13:10.305Z,99574.85
2023-01-12T05:18:14.027Z,99574.05
2023-01-12T05:23:17.341Z,99573.41
2023-01-12T05:28:20.859Z,99573.96
2023-01-12T05:33:25.391Z,99571.98
2023-01-12T05:38:29.752Z,99582.42
2023-01-12T05:43:51.279Z,99579.51
2023-01-12T05:48:56.170Z,99586.72
2023-01-12T05:53:59.636Z,99586.63
2023-01-12T05:59:04.991Z,99593.27
2023-01-12T06:04:11.263Z,99597.86
2023-01-12T06:09:14.681Z,99602.67
2023-01-12T06:14:18.105Z,99602.89
2023-01-12T06:19:21.613Z,99602.24
2023-01-12T06:24:25.436Z,99604.44
2023-01-12T06:29:28.742Z,99613.35
2023-01-12T06:34:35.227Z,99625.22
2023-01-12T06:39:38.641Z,99631.56
2023-01-12T06:44:42.059Z,99627.89
2023-01-12T06:49:45.467Z,99617.69
2023-01-12T06:54:48.985Z,99618.08
2023-01-12T06:59:52.706Z,99607.84
2023-01-12T07:04:56.112Z,99603.05
2023-01-12T07:09:59.530Z,99606.06
2023-01-12T07:15:04.176Z,99602.55
2023-01-12T07:20:08.419Z,99603.23
2023-01-12T07:25:11.714Z,99608.40
2023-01-12T07:30:15.225Z,99611.77
2023-01-12T07:35:19.053Z,99607.95
2023-01-12T07:40:22.670Z,99609.42
2023-01-12T07:45:26.495Z,99608.63
2023-01-12T07:50:30.120Z,99607.43
2023-01-12T07:55:33.627Z,99600.92
2023-01-12T08:00:37.959Z,99594.70
2023-01-12T08:05:41.856Z,99588.38
2023-01-12T08:10:47.662Z,99589.26
2023-01-12T08:15:52.010Z,99584.65
2023-01-12T08:21:00.118Z,99577.64
2023-01-12T08:26:07.729Z,99581.27
2023-01-12T08:31:14.208Z,99590.02
2023-01-12T08:36:18.981Z,99586.44
2023-01-12T08:41:34.762Z,99579.86
2023-01-12T08:46:40.243Z,99575.36
2023-01-12T08:51:44.449Z,99573.13
2023-01-12T08:56:49.509Z,99579.05
2023-01-12T09:01:53.004Z,99575.33
2023-01-12T09:06:58.637Z,99580.89
2023-01-12T09:12:03.742Z,99581.13
2023-01-12T09:17:08.093Z,99577.10
2023-01-12T09:22:12.404Z,99578.55
2023-01-12T09:27:15.818Z,99582.38
2023-01-12T09:32:22.945Z,99574.48
2023-01-12T09:37:29.504Z,99575.33
2023-01-12T09:42:51.451Z,99572.23
2023-01-12T09:47:57.749Z,99566.66
2023-01-12T09:53:11.080Z,99569.80
2023-01-12T09:58:23.750Z,99568.36
2023-01-12T10:03:35.904Z,99562.62
2023-01-12T10:09:01.266Z,99556.92
2023-01-12T10:14:23.340Z,99553.05
2023-01-12T10:19:39.011Z,99536.77
2023-01-12T10:24:43.548Z,99545.09
2023-01-12T10:29:48.605Z,99533.97
2023-01-12T10:34:52.887Z,99528.00
2023-01-12T10:39:56.243Z,99523.16
2023-01-12T10:45:13.627Z,99519.09
2023-01-12T10:50:34.067Z,99518.70
2023-01-12T10:55:40.474Z,99523.61
2023-01-12T11:00:48.959Z,99514.45
2023-01-12T11:05:52.426Z,99497.52
2023-01-12T11:10:55.733Z,99482.81
2023-01-12T11:16:11.889Z,99476.48
2023-01-12T11:21:20.280Z,99476.52
2023-01-12T11:26:33.843Z,99468.48
2023-01-12T11:31:42.782Z,99461.48
2023-01-12T11:37:06.154Z,99463.31
2023-01-12T11:42:40.185Z,99460.13
2023-01-12T11:47:49.818Z,99455.94
2023-01-12T11:52:55.656Z,99458.27
2023-01-12T11:58:25.443Z,99452.13
2023-01-12T12:03:31.842Z,99443.27
2023-01-12T12:08:57.563Z,99444.66
2023-01-12T12:14:00.873Z,99442.16
2023-01-12T12:19:23.646Z,99436.38
2023-01-12T12:24:56.134Z,99422.77
2023-01-12T12:30:11.427Z,99413.33
2023-01-12T12:35:45.878Z,99406.38
2023-01-12T12:41:26.964Z,99399.36
2023-01-12T12:46:56.797Z,99392.94
2023-01-12T12:52:01.096Z,99392.20
2023-01-12T12:57:04.647Z,99393.53
2023-01-12T13:02:38.744Z,99387.06
2023-01-12T13:07:45.691Z,99372.78
2023-01-12T13:13:01.522Z,99364.73
2023-01-12T13:18:06.236Z,99365.73
2023-01-12T13:23:49.265Z,99370.36
2023-01-12T13:29:24.009Z,99364.78
2023-01-12T13:34:39.202Z,99366.96
2023-01-12T13:39:52.757Z,99357.16
2023-01-12T13:44:56.232Z,99357.56
2023-01-12T13:50:01.748Z,99346.73
2023-01-12T13:55:19.724Z,99344.55
2023-01-12T14:00:24.208Z,99342.27
2023-01-12T14:05:51.087Z,99336.89
2023-01-12T14:11:18.267Z,99326.70
2023-01-12T14:16:41.840Z,99314.55
2023-01-12T14:22:05.224Z,99306.13
2023-01-12T14:27:27.554Z,99304.25
2023-01-12T14:32:31.715Z,99307.69
2023-01-12T14:37:35.856Z,99306.22
2023-01-12T14:42:57.659Z,99311.86
2023-01-12T14:48:20.885Z,99315.98
2023-01-12T14:53:42.010Z,99324.02
2023-01-12T14:58:46.941Z,99325.39
2023-01-12T15:03:50.972Z,99317.73
2023-01-12T15:09:01.994Z,99317.52
2023-01-12T15:14:06.900Z,99313.10
2023-01-12T15:19:29.775Z,99309.27
2023-01-12T15:24:54.606Z,99306.44
2023-01-12T15:29:58.413Z,99301.73
2023-01-12T15:35:02.496Z,99304.52
2023-01-12T15:40:06.678Z,99300.92
2023-01-12T15:45:29.357Z,99284.16
2023-01-12T15:50:34.541Z,99279.60
2023-01-12T15:55:39.703Z,99273.66
2023-01-12T16:00:45.093Z,99270.96
2023-01-12T16:05:48.519Z,99264.55
2023-01-12T16:11:12.316Z,99266.66
2023-01-12T16:16:17.173Z,99259.41
2023-01-12T16:21:23.095Z,99247.31
2023-01-12T16:26:28.180Z,99243.33
2023-01-12T16:31:32.134Z,99241.02
2023-01-12T16:36:35.727Z,99236.17
2023-01-12T16:41:39.033Z,99236.51
2023-01-12T16:46:43.169Z,99227.55
2023-01-12T16:51:46.473Z,99231.20
2023-01-12T16:56:49.995Z,99225.73
2023-01-12T17:01:53.521Z,99225.98
2023-01-12T17:06:57.226Z,99212.46
2023-01-12T17:12:00.750Z,99214.10
2023-01-12T17:17:07.876Z,99218.17
2023-01-12T17:22:12.069Z,99209.29
2023-01-12T17:27:16.216Z,99196.90
2023-01-12T17:32:19.615Z,99201.76
2023-01-12T17:37:23.041Z,99202.20
2023-01-12T17:42:45.280Z,99198.52
2023-01-12T17:47:48.694Z,99200.97
2023-01-12T17:52:52.418Z,99201.63
2023-01-12T17:57:55.829Z,99200.09
2023-01-12T18:03:00.483Z,99204.38
2023-01-12T18:08:03.984Z,99196.32
2023-01-12T18:13:07.399Z,99185.92
2023-01-12T18:18:10.909Z,99189.98
2023-01-12T18:23:14.870Z,99193.98
2023-01-12T18:28:18.362Z,99189.63
2023-01-12T18:33:21.769Z,99183.35
2023-01-12T18:38:27.259Z,99181.81
2023-01-12T18:43:30.645Z,99172.81
2023-01-12T18:48:34.467Z,99174.85
2023-01-12T18:53:38.778Z,99180.21
2023-01-12T18:58:43.545Z,99183.98
2023-01-12T19:03:47.097Z,99175.30
2023-01-12T19:09:10.139Z,99180.55
2023-01-12T19:14:32.388Z,99184.26
2023-01-12T19:19:36.532Z,99179.61
2023-01-12T19:24:58.889Z,99184.33
2023-01-12T19:30:02.600Z,99177.55
2023-01-12T19:35:11.272Z,99173.25
2023-01-12T19:40:23.655Z,99169.97
2023-01-12T19:45:27.074Z,99165.06
2023-01-12T19:50:30.486Z,99169.65
2023-01-12T19:55:34.413Z,99170.34
2023-01-12T20:00:43.658Z,99164.17
2023-01-12T20:05:51.075Z,99166.40
2023-01-12T20:10:59.081Z,99164.37
2023-01-12T20:16:07.070Z,99164.82
2023-01-12T20:21:12.636Z,99166.09
2023-01-12T20:26:16.185Z,99166.96
2023-01-12T20:31:21.047Z,99161.52
2023-01-12T20:36:25.069Z,99170.91
2023-01-12T20:41:28.464Z,99164.69
2023-01-12T20:46:32.410Z,99169.41
2023-01-12T20:51:35.857Z,99162.39
2023-01-12T20:56:39.432Z,99165.50
2023-01-12T21:01:43.541Z,99165.67
2023-01-12T21:06:47.184Z,99168.45
2023-01-12T21:11:51.515Z,99165.61
2023-01-12T21:16:54.823Z,99165.77
2023-01-12T21:21:58.237Z,99167.86
2023-01-12T21:27:01.751Z,99166.94
2023-01-12T21:32:05.594Z,99163.49
2023-01-12T21:37:08.988Z,99166.05
2023-01-12T21:42:31.140Z,99165.89
2023-01-12T21:47:34.557Z,99163.24
2023-01-12T21:52:38.167Z,99158.84
2023-01-12T21:57:44.867Z,99164.30
2023-01-12T22:02:50.447Z,99158.47
2023-01-12T22:07:55.578Z,99157.23
2023-01-12T22:13:00.631Z,99152.39
2023-01-12T22:18:04.866Z,99157.00
2023-01-12T22:23:11.242Z,99141.80
2023-01-12T22:28:14.873Z,99144.27
2023-01-12T22:33:18.176Z,99155.12
2023-01-12T22:38:21.699Z,99150.75
2023-01-12T22:43:27.881Z,99150.72
2023-01-12T22:48:31.388Z,99154.10
2023-01-12T22:53:36.024Z,99153.33
2023-01-12T22:58:40.574Z,99144.70
2023-01-12T23:03:44.294Z,99137.85
2023-01-12T23:08:47.704Z,99139.91
2023-01-12T23:13:52.946Z,99141.16
2023-01-12T23:18:56.476Z,99142.16
2023-01-12T23:24:00.925Z,99143.27
2023-01-12T23:29:04.222Z,99146.10
2023-01-12T23:34:07.739Z,99143.09
2023-01-12T23:39:12.559Z,99149.71
2023-01-12T23:44:16.002Z,99151.31
2023-01-12T23:49:19.618Z,99143.60
2023-01-12T23:54:23.028Z,99145.00
2023-01-12T23:59:26.850Z,99144.98
